Dingus, Kentucky
Current Conditions -  °F | °C
As of 11:53 PM on Tuesday 21 Oct 2014 (Local Time) from KJKL Reporting Station
Overcast Overcast  
Wind Chill: 47°   Ceiling: 3400
Heat Index: 47°   Visibility: 10mi
Dew Point: 42°   Wind: 0mph
Humidity: 83%   Direction: NA
Pressure: 30.13"   Gusts: NA
Location:  37.937°N, 83.2694°W
Report Text: KJKL 220353Z AUTO 00000KT 10SM FEW013 BKN034 OVC050 08/06 A3013 RMK AO2 SLP200 T00830056
Loading
Personal Weather Stations






























Interactive Weather Map
Tropical Storm Tracking
New forecast layout! Learn more

10-Day Weather Forecast

Advertisements
Track Severe Weather on mobile